sensor_id;sensor_type;location;lat;lon;timestamp;P1;durP1;ratioP1;P2;durP2;ratioP2
23628;SDS011;11991;57.150;-2.134;2022-07-11T00:01:05;2.00;;;1.42;;
23628;SDS011;11991;57.150;-2.134;2022-07-11T00:03:32;1.40;;;1.30;;
23628;SDS011;11991;57.150;-2.134;2022-07-11T00:05:59;3.05;;;1.67;;
23628;SDS011;11991;57.150;-2.134;2022-07-11T00:08:27;3.17;;;1.70;;
23628;SDS011;11991;57.150;-2.134;2022-07-11T00:10:54;3.83;;;2.90;;
23628;SDS011;11991;57.150;-2.134;2022-07-11T00:13:22;4.05;;;2.10;;
23628;SDS011;11991;57.150;-2.134;2022-07-11T00:15:49;2.67;;;1.55;;
23628;SDS011;11991;57.150;-2.134;2022-07-11T00:18:16;2.22;;;1.92;;
23628;SDS011;11991;57.150;-2.134;2022-07-11T00:20:44;3.00;;;2.47;;
23628;SDS011;11991;57.150;-2.134;2022-07-11T00:23:11;3.17;;;2.15;;
23628;SDS011;11991;57.150;-2.134;2022-07-11T00:25:38;3.25;;;2.28;;
23628;SDS011;11991;57.150;-2.134;2022-07-11T00:28:06;4.97;;;2.97;;
23628;SDS011;11991;57.150;-2.134;2022-07-11T00:30:34;5.88;;;3.05;;
23628;SDS011;11991;57.150;-2.134;2022-07-11T00:33:01;3.10;;;2.38;;
23628;SDS011;11991;57.150;-2.134;2022-07-11T00:35:29;2.20;;;2.00;;
23628;SDS011;11991;57.150;-2.134;2022-07-11T00:37:56;3.45;;;2.25;;
23628;SDS011;11991;57.150;-2.134;2022-07-11T00:40:23;4.00;;;3.10;;
23628;SDS011;11991;57.150;-2.134;2022-07-11T00:42:53;6.00;;;3.40;;
23628;SDS011;11991;57.150;-2.134;2022-07-11T00:45:20;5.35;;;3.63;;
23628;SDS011;11991;57.150;-2.134;2022-07-11T00:47:47;3.90;;;2.63;;
23628;SDS011;11991;57.150;-2.134;2022-07-11T00:50:14;1.90;;;1.65;;
23628;SDS011;11991;57.150;-2.134;2022-07-11T00:52:42;3.50;;;1.85;;
23628;SDS011;11991;57.150;-2.134;2022-07-11T00:55:10;2.38;;;1.92;;
23628;SDS011;11991;57.150;-2.134;2022-07-11T00:57:39;3.38;;;1.88;;
23628;SDS011;11991;57.150;-2.134;2022-07-11T01:00:06;2.78;;;2.22;;
23628;SDS011;11991;57.150;-2.134;2022-07-11T01:02:35;3.65;;;2.80;;
23628;SDS011;11991;57.150;-2.134;2022-07-11T01:05:02;4.50;;;3.05;;
23628;SDS011;11991;57.150;-2.134;2022-07-11T01:07:30;4.00;;;2.55;;
23628;SDS011;11991;57.150;-2.134;2022-07-11T01:09:59;1.70;;;1.52;;
23628;SDS011;11991;57.150;-2.134;2022-07-11T01:12:26;3.55;;;2.85;;
23628;SDS011;11991;57.150;-2.134;2022-07-11T01:14:53;1.77;;;1.58;;
23628;SDS011;11991;57.150;-2.134;2022-07-11T01:17:22;4.47;;;2.42;;
23628;SDS011;11991;57.150;-2.134;2022-07-11T01:19:50;4.88;;;3.03;;
23628;SDS011;11991;57.150;-2.134;2022-07-11T01:22:17;11.88;;;4.90;;
23628;SDS011;11991;57.150;-2.134;2022-07-11T01:24:50;4.60;;;3.50;;
23628;SDS011;11991;57.150;-2.134;2022-07-11T01:27:17;2.75;;;2.28;;
23628;SDS011;11991;57.150;-2.134;2022-07-11T01:29:46;4.03;;;3.13;;
23628;SDS011;11991;57.150;-2.134;2022-07-11T01:32:13;4.75;;;4.03;;
23628;SDS011;11991;57.150;-2.134;2022-07-11T01:34:43;8.27;;;4.82;;
23628;SDS011;11991;57.150;-2.134;2022-07-11T01:37:10;4.43;;;3.10;;
23628;SDS011;11991;57.150;-2.134;2022-07-11T01:39:37;7.15;;;4.15;;
23628;SDS011;11991;57.150;-2.134;2022-07-11T01:42:05;3.70;;;2.97;;
23628;SDS011;11991;57.150;-2.134;2022-07-11T01:44:32;5.63;;;3.80;;
23628;SDS011;11991;57.150;-2.134;2022-07-11T01:46:59;4.32;;;3.72;;
23628;SDS011;11991;57.150;-2.134;2022-07-11T01:49:27;3.42;;;2.50;;
23628;SDS011;11991;57.150;-2.134;2022-07-11T01:51:56;3.63;;;2.60;;
23628;SDS011;11991;57.150;-2.134;2022-07-11T01:54:23;3.13;;;2.28;;
23628;SDS011;11991;57.150;-2.134;2022-07-11T01:56:51;2.33;;;2.00;;
23628;SDS011;11991;57.150;-2.134;2022-07-11T01:59:19;2.40;;;1.90;;
23628;SDS011;11991;57.150;-2.134;2022-07-11T02:01:46;2.10;;;1.42;;
23628;SDS011;11991;57.150;-2.134;2022-07-11T02:04:13;1.85;;;1.35;;
23628;SDS011;11991;57.150;-2.134;2022-07-11T02:06:40;1.88;;;1.58;;
23628;SDS011;11991;57.150;-2.134;2022-07-11T02:09:08;9.80;;;5.00;;
23628;SDS011;11991;57.150;-2.134;2022-07-11T02:11:35;4.70;;;2.97;;
23628;SDS011;11991;57.150;-2.134;2022-07-11T02:14:02;2.63;;;1.67;;
23628;SDS011;11991;57.150;-2.134;2022-07-11T02:16:29;1.77;;;1.58;;
23628;SDS011;11991;57.150;-2.134;2022-07-11T02:18:57;2.15;;;1.55;;
23628;SDS011;11991;57.150;-2.134;2022-07-11T02:21:24;1.98;;;1.48;;
23628;SDS011;11991;57.150;-2.134;2022-07-11T02:23:51;2.88;;;1.52;;
23628;SDS011;11991;57.150;-2.134;2022-07-11T02:26:19;1.83;;;1.52;;
23628;SDS011;11991;57.150;-2.134;2022-07-11T02:28:46;1.08;;;0.90;;
23628;SDS011;11991;57.150;-2.134;2022-07-11T02:31:13;3.50;;;2.78;;
23628;SDS011;11991;57.150;-2.134;2022-07-11T02:33:41;4.32;;;2.60;;
23628;SDS011;11991;57.150;-2.134;2022-07-11T02:36:10;2.55;;;2.05;;
23628;SDS011;11991;57.150;-2.134;2022-07-11T02:38:37;2.72;;;1.95;;
23628;SDS011;11991;57.150;-2.134;2022-07-11T02:41:05;3.88;;;2.80;;
23628;SDS011;11991;57.150;-2.134;2022-07-11T02:43:32;3.30;;;2.38;;
23628;SDS011;11991;57.150;-2.134;2022-07-11T02:46:00;3.28;;;2.42;;
23628;SDS011;11991;57.150;-2.134;2022-07-11T02:48:28;3.25;;;2.20;;
23628;SDS011;11991;57.150;-2.134;2022-07-11T02:50:55;3.05;;;1.85;;
23628;SDS011;11991;57.150;-2.134;2022-07-11T02:53:22;2.25;;;1.20;;
23628;SDS011;11991;57.150;-2.134;2022-07-11T02:55:49;2.08;;;1.38;;
23628;SDS011;11991;57.150;-2.134;2022-07-11T02:58:17;2.03;;;1.45;;
23628;SDS011;11991;57.150;-2.134;2022-07-11T03:00:44;1.30;;;1.00;;
23628;SDS011;11991;57.150;-2.134;2022-07-11T03:03:11;1.00;;;0.90;;
23628;SDS011;11991;57.150;-2.134;2022-07-11T03:05:38;1.15;;;0.80;;
23628;SDS011;11991;57.150;-2.134;2022-07-11T03:08:06;1.42;;;1.20;;
23628;SDS011;11991;57.150;-2.134;2022-07-11T03:10:34;1.98;;;1.33;;
23628;SDS011;11991;57.150;-2.134;2022-07-11T03:13:02;1.30;;;1.15;;
23628;SDS011;11991;57.150;-2.134;2022-07-11T03:15:29;1.67;;;1.10;;
23628;SDS011;11991;57.150;-2.134;2022-07-11T03:17:56;1.95;;;1.60;;
23628;SDS011;11991;57.150;-2.134;2022-07-11T03:20:23;1.10;;;1.00;;
23628;SDS011;11991;57.150;-2.134;2022-07-11T03:22:50;1.30;;;1.17;;
23628;SDS011;11991;57.150;-2.134;2022-07-11T03:25:18;1.60;;;1.30;;
23628;SDS011;11991;57.150;-2.134;2022-07-11T03:27:45;1.30;;;1.20;;
23628;SDS011;11991;57.150;-2.134;2022-07-11T03:30:12;1.48;;;1.13;;
23628;SDS011;11991;57.150;-2.134;2022-07-11T03:32:41;1.00;;;0.90;;
23628;SDS011;11991;57.150;-2.134;2022-07-11T03:35:08;1.95;;;1.08;;
23628;SDS011;11991;57.150;-2.134;2022-07-11T03:37:54;1.80;;;1.40;;
23628;SDS011;11991;57.150;-2.134;2022-07-11T03:40:21;1.15;;;1.05;;
23628;SDS011;11991;57.150;-2.134;2022-07-11T03:42:49;1.10;;;1.00;;
23628;SDS011;11991;57.150;-2.134;2022-07-11T03:45:16;1.48;;;0.98;;
23628;SDS011;11991;57.150;-2.134;2022-07-11T03:47:44;1.02;;;0.90;;
23628;SDS011;11991;57.150;-2.134;2022-07-11T03:50:14;1.42;;;0.90;;
23628;SDS011;11991;57.150;-2.134;2022-07-11T03:52:43;1.00;;;0.88;;
23628;SDS011;11991;57.150;-2.134;2022-07-11T03:55:11;1.30;;;0.95;;
23628;SDS011;11991;57.150;-2.134;2022-07-11T03:57:38;1.00;;;0.90;;
23628;SDS011;11991;57.150;-2.134;2022-07-11T04:00:06;0.50;;;0.50;;
23628;SDS011;11991;57.150;-2.134;2022-07-11T04:02:35;0.70;;;0.70;;
23628;SDS011;11991;57.150;-2.134;2022-07-11T04:05:03;0.60;;;0.60;;
23628;SDS011;11991;57.150;-2.134;2022-07-11T04:07:30;0.80;;;0.80;;
23628;SDS011;11991;57.150;-2.134;2022-07-11T04:09:58;0.70;;;0.70;;
23628;SDS011;11991;57.150;-2.134;2022-07-11T04:12:25;0.52;;;0.52;;
23628;SDS011;11991;57.150;-2.134;2022-07-11T04:14:52;1.45;;;0.82;;
23628;SDS011;11991;57.150;-2.134;2022-07-11T04:17:20;0.98;;;0.95;;
23628;SDS011;11991;57.150;-2.134;2022-07-11T04:19:47;0.70;;;0.70;;
23628;SDS011;11991;57.150;-2.134;2022-07-11T04:22:15;0.70;;;0.70;;
23628;SDS011;11991;57.150;-2.134;2022-07-11T04:24:42;0.70;;;0.70;;
23628;SDS011;11991;57.150;-2.134;2022-07-11T04:27:09;1.02;;;0.90;;
23628;SDS011;11991;57.150;-2.134;2022-07-11T04:29:36;0.80;;;0.80;;
23628;SDS011;11991;57.150;-2.134;2022-07-11T04:32:04;0.70;;;0.70;;
23628;SDS011;11991;57.150;-2.134;2022-07-11T04:34:33;0.60;;;0.60;;
23628;SDS011;11991;57.150;-2.134;2022-07-11T04:37:00;0.70;;;0.70;;
23628;SDS011;11991;57.150;-2.134;2022-07-11T04:39:27;1.10;;;1.00;;
23628;SDS011;11991;57.150;-2.134;2022-07-11T04:41:54;1.02;;;0.90;;
23628;SDS011;11991;57.150;-2.134;2022-07-11T04:44:22;1.20;;;1.08;;
23628;SDS011;11991;57.150;-2.134;2022-07-11T04:46:49;0.98;;;0.85;;
23628;SDS011;11991;57.150;-2.134;2022-07-11T04:49:16;0.70;;;0.70;;
23628;SDS011;11991;57.150;-2.134;2022-07-11T04:51:45;0.90;;;0.80;;
23628;SDS011;11991;57.150;-2.134;2022-07-11T04:54:12;0.75;;;0.75;;
23628;SDS011;11991;57.150;-2.134;2022-07-11T04:56:40;0.80;;;0.80;;
23628;SDS011;11991;57.150;-2.134;2022-07-11T04:59:07;0.60;;;0.60;;
23628;SDS011;11991;57.150;-2.134;2022-07-11T05:01:34;0.95;;;0.75;;
23628;SDS011;11991;57.150;-2.134;2022-07-11T05:04:02;0.82;;;0.80;;
23628;SDS011;11991;57.150;-2.134;2022-07-11T05:06:30;0.70;;;0.70;;
23628;SDS011;11991;57.150;-2.134;2022-07-11T05:08:57;0.55;;;0.55;;
23628;SDS011;11991;57.150;-2.134;2022-07-11T05:11:24;0.85;;;0.60;;
23628;SDS011;11991;57.150;-2.134;2022-07-11T05:13:55;0.55;;;0.55;;
23628;SDS011;11991;57.150;-2.134;2022-07-11T05:16:22;0.70;;;0.65;;
23628;SDS011;11991;57.150;-2.134;2022-07-11T05:18:49;0.70;;;0.70;;
23628;SDS011;11991;57.150;-2.134;2022-07-11T05:21:17;0.60;;;0.60;;
23628;SDS011;11991;57.150;-2.134;2022-07-11T05:23:50;0.40;;;0.40;;
23628;SDS011;11991;57.150;-2.134;2022-07-11T05:26:17;1.00;;;0.70;;
23628;SDS011;11991;57.150;-2.134;2022-07-11T05:28:44;0.60;;;0.60;;
23628;SDS011;11991;57.150;-2.134;2022-07-11T05:31:12;0.70;;;0.70;;
23628;SDS011;11991;57.150;-2.134;2022-07-11T05:33:39;0.50;;;0.50;;
23628;SDS011;11991;57.150;-2.134;2022-07-11T05:36:07;0.77;;;0.70;;
23628;SDS011;11991;57.150;-2.134;2022-07-11T05:38:35;0.90;;;0.90;;
23628;SDS011;11991;57.150;-2.134;2022-07-11T05:41:02;1.30;;;0.60;;
23628;SDS011;11991;57.150;-2.134;2022-07-11T05:43:30;0.60;;;0.60;;
23628;SDS011;11991;57.150;-2.134;2022-07-11T05:45:57;0.70;;;0.65;;
23628;SDS011;11991;57.150;-2.134;2022-07-11T05:48:24;0.80;;;0.80;;
23628;SDS011;11991;57.150;-2.134;2022-07-11T05:50:51;0.45;;;0.45;;
23628;SDS011;11991;57.150;-2.134;2022-07-11T05:53:19;0.70;;;0.70;;
23628;SDS011;11991;57.150;-2.134;2022-07-11T05:55:46;0.75;;;0.63;;
23628;SDS011;11991;57.150;-2.134;2022-07-11T05:58:14;0.65;;;0.63;;
23628;SDS011;11991;57.150;-2.134;2022-07-11T06:00:41;0.93;;;0.70;;
23628;SDS011;11991;57.150;-2.134;2022-07-11T06:03:08;1.00;;;0.90;;
23628;SDS011;11991;57.150;-2.134;2022-07-11T06:05:36;0.50;;;0.50;;
23628;SDS011;11991;57.150;-2.134;2022-07-11T06:08:03;0.50;;;0.50;;
23628;SDS011;11991;57.150;-2.134;2022-07-11T06:10:54;0.60;;;0.60;;
23628;SDS011;11991;57.150;-2.134;2022-07-11T06:13:22;0.80;;;0.55;;
23628;SDS011;11991;57.150;-2.134;2022-07-11T06:15:49;0.47;;;0.47;;
23628;SDS011;11991;57.150;-2.134;2022-07-11T06:18:16;0.40;;;0.40;;
23628;SDS011;11991;57.150;-2.134;2022-07-11T06:20:43;0.75;;;0.60;;
23628;SDS011;11991;57.150;-2.134;2022-07-11T06:23:12;0.70;;;0.60;;
23628;SDS011;11991;57.150;-2.134;2022-07-11T06:25:39;0.57;;;0.57;;
23628;SDS011;11991;57.150;-2.134;2022-07-11T06:28:07;0.65;;;0.60;;
23628;SDS011;11991;57.150;-2.134;2022-07-11T06:30:34;1.48;;;0.77;;
23628;SDS011;11991;57.150;-2.134;2022-07-11T06:33:03;0.88;;;0.70;;
23628;SDS011;11991;57.150;-2.134;2022-07-11T06:35:30;0.63;;;0.63;;
23628;SDS011;11991;57.150;-2.134;2022-07-11T06:38:01;1.00;;;0.90;;
23628;SDS011;11991;57.150;-2.134;2022-07-11T06:40:28;0.88;;;0.80;;
23628;SDS011;11991;57.150;-2.134;2022-07-11T06:42:55;0.93;;;0.90;;
23628;SDS011;11991;57.150;-2.134;2022-07-11T06:45:23;0.70;;;0.70;;
23628;SDS011;11991;57.150;-2.134;2022-07-11T06:47:50;0.65;;;0.60;;
23628;SDS011;11991;57.150;-2.134;2022-07-11T06:50:19;1.02;;;0.80;;
23628;SDS011;11991;57.150;-2.134;2022-07-11T06:52:46;0.80;;;0.73;;
23628;SDS011;11991;57.150;-2.134;2022-07-11T06:55:17;0.60;;;0.60;;
23628;SDS011;11991;57.150;-2.134;2022-07-11T06:57:44;0.90;;;0.80;;
23628;SDS011;11991;57.150;-2.134;2022-07-11T07:00:31;0.70;;;0.70;;
23628;SDS011;11991;57.150;-2.134;2022-07-11T07:02:59;0.93;;;0.80;;
23628;SDS011;11991;57.150;-2.134;2022-07-11T07:05:32;0.63;;;0.63;;
23628;SDS011;11991;57.150;-2.134;2022-07-11T07:07:59;0.60;;;0.60;;
23628;SDS011;11991;57.150;-2.134;2022-07-11T07:10:27;0.80;;;0.80;;
23628;SDS011;11991;57.150;-2.134;2022-07-11T07:12:54;0.82;;;0.60;;
23628;SDS011;11991;57.150;-2.134;2022-07-11T07:15:21;1.45;;;0.80;;
23628;SDS011;11991;57.150;-2.134;2022-07-11T07:17:48;0.57;;;0.57;;
23628;SDS011;11991;57.150;-2.134;2022-07-11T07:20:16;0.95;;;0.73;;
23628;SDS011;11991;57.150;-2.134;2022-07-11T07:22:43;0.70;;;0.70;;
23628;SDS011;11991;57.150;-2.134;2022-07-11T07:25:11;0.65;;;0.60;;
23628;SDS011;11991;57.150;-2.134;2022-07-11T07:27:38;0.90;;;0.90;;
23628;SDS011;11991;57.150;-2.134;2022-07-11T07:30:05;0.82;;;0.82;;
23628;SDS011;11991;57.150;-2.134;2022-07-11T07:32:33;1.52;;;0.88;;
23628;SDS011;11991;57.150;-2.134;2022-07-11T07:35:01;0.52;;;0.52;;
23628;SDS011;11991;57.150;-2.134;2022-07-11T07:37:28;0.60;;;0.60;;
23628;SDS011;11991;57.150;-2.134;2022-07-11T07:39:55;0.30;;;0.30;;
23628;SDS011;11991;57.150;-2.134;2022-07-11T07:42:22;0.50;;;0.40;;
23628;SDS011;11991;57.150;-2.134;2022-07-11T07:44:50;0.90;;;0.40;;
23628;SDS011;11991;57.150;-2.134;2022-07-11T07:47:17;0.40;;;0.40;;
23628;SDS011;11991;57.150;-2.134;2022-07-11T07:49:44;0.40;;;0.40;;
23628;SDS011;11991;57.150;-2.134;2022-07-11T07:52:12;0.40;;;0.40;;
23628;SDS011;11991;57.150;-2.134;2022-07-11T07:54:39;0.40;;;0.40;;
23628;SDS011;11991;57.150;-2.134;2022-07-11T07:57:06;0.40;;;0.40;;
23628;SDS011;11991;57.150;-2.134;2022-07-11T07:59:34;0.70;;;0.40;;
23628;SDS011;11991;57.150;-2.134;2022-07-11T08:02:01;0.45;;;0.45;;
23628;SDS011;11991;57.150;-2.134;2022-07-11T08:04:29;0.50;;;0.50;;
23628;SDS011;11991;57.150;-2.134;2022-07-11T08:06:56;1.23;;;0.50;;
23628;SDS011;11991;57.150;-2.134;2022-07-11T08:09:26;0.40;;;0.40;;
23628;SDS011;11991;57.150;-2.134;2022-07-11T08:11:53;1.05;;;0.47;;
23628;SDS011;11991;57.150;-2.134;2022-07-11T08:14:21;0.57;;;0.57;;
23628;SDS011;11991;57.150;-2.134;2022-07-11T08:16:49;0.68;;;0.50;;
23628;SDS011;11991;57.150;-2.134;2022-07-11T08:19:16;0.40;;;0.40;;
23628;SDS011;11991;57.150;-2.134;2022-07-11T08:21:43;0.63;;;0.63;;
23628;SDS011;11991;57.150;-2.134;2022-07-11T08:24:11;0.38;;;0.38;;
23628;SDS011;11991;57.150;-2.134;2022-07-11T08:26:38;0.55;;;0.50;;
23628;SDS011;11991;57.150;-2.134;2022-07-11T08:29:05;0.30;;;0.30;;
23628;SDS011;11991;57.150;-2.134;2022-07-11T08:31:32;0.32;;;0.32;;
23628;SDS011;11991;57.150;-2.134;2022-07-11T08:34:02;0.50;;;0.50;;
23628;SDS011;11991;57.150;-2.134;2022-07-11T08:36:33;0.57;;;0.50;;
23628;SDS011;11991;57.150;-2.134;2022-07-11T08:39:02;0.88;;;0.60;;
23628;SDS011;11991;57.150;-2.134;2022-07-11T08:41:29;0.43;;;0.40;;
23628;SDS011;11991;57.150;-2.134;2022-07-11T08:43:58;0.40;;;0.40;;
23628;SDS011;11991;57.150;-2.134;2022-07-11T08:46:26;0.40;;;0.40;;
23628;SDS011;11991;57.150;-2.134;2022-07-11T08:48:55;0.40;;;0.40;;
23628;SDS011;11991;57.150;-2.134;2022-07-11T08:51:25;0.40;;;0.35;;
23628;SDS011;11991;57.150;-2.134;2022-07-11T08:53:54;0.30;;;0.30;;
23628;SDS011;11991;57.150;-2.134;2022-07-11T08:56:22;0.60;;;0.50;;
23628;SDS011;11991;57.150;-2.134;2022-07-11T08:58:51;0.45;;;0.45;;
23628;SDS011;11991;57.150;-2.134;2022-07-11T09:01:31;0.40;;;0.35;;
23628;SDS011;11991;57.150;-2.134;2022-07-11T09:04:00;0.60;;;0.50;;
23628;SDS011;11991;57.150;-2.134;2022-07-11T09:06:28;0.55;;;0.40;;
23628;SDS011;11991;57.150;-2.134;2022-07-11T09:08:59;0.40;;;0.40;;
23628;SDS011;11991;57.150;-2.134;2022-07-11T09:11:28;0.70;;;0.50;;
23628;SDS011;11991;57.150;-2.134;2022-07-11T09:14:23;0.40;;;0.40;;
23628;SDS011;11991;57.150;-2.134;2022-07-11T09:17:02;1.35;;;0.60;;
23628;SDS011;11991;57.150;-2.134;2022-07-11T09:19:31;0.50;;;0.35;;
23628;SDS011;11991;57.150;-2.134;2022-07-11T09:22:04;0.50;;;0.50;;
23628;SDS011;11991;57.150;-2.134;2022-07-11T09:24:59;1.42;;;0.75;;
23628;SDS011;11991;57.150;-2.134;2022-07-11T09:27:46;0.60;;;0.50;;
23628;SDS011;11991;57.150;-2.134;2022-07-11T09:33:03;0.30;;;0.30;;
23628;SDS011;11991;57.150;-2.134;2022-07-11T09:38:02;0.40;;;0.40;;
23628;SDS011;11991;57.150;-2.134;2022-07-11T09:40:30;0.40;;;0.40;;
23628;SDS011;11991;57.150;-2.134;2022-07-11T09:42:59;0.35;;;0.35;;
23628;SDS011;11991;57.150;-2.134;2022-07-11T09:45:28;0.60;;;0.60;;
23628;SDS011;11991;57.150;-2.134;2022-07-11T09:47:58;0.47;;;0.40;;
23628;SDS011;11991;57.150;-2.134;2022-07-11T09:50:28;0.60;;;0.60;;
23628;SDS011;11991;57.150;-2.134;2022-07-11T09:53:06;0.45;;;0.45;;
23628;SDS011;11991;57.150;-2.134;2022-07-11T09:55:43;0.85;;;0.57;;
23628;SDS011;11991;57.150;-2.134;2022-07-11T09:58:19;1.20;;;0.60;;
23628;SDS011;11991;57.150;-2.134;2022-07-11T10:00:54;0.95;;;0.60;;
23628;SDS011;11991;57.150;-2.134;2022-07-11T10:03:22;0.63;;;0.55;;
23628;SDS011;11991;57.150;-2.134;2022-07-11T10:06:10;0.95;;;0.80;;
23628;SDS011;11991;57.150;-2.134;2022-07-11T10:08:37;0.40;;;0.40;;
23628;SDS011;11991;57.150;-2.134;2022-07-11T10:11:04;0.50;;;0.50;;
23628;SDS011;11991;57.150;-2.134;2022-07-11T10:13:32;0.70;;;0.40;;
23628;SDS011;11991;57.150;-2.134;2022-07-11T10:15:59;0.75;;;0.60;;
23628;SDS011;11991;57.150;-2.134;2022-07-11T10:18:40;1.17;;;0.50;;
23628;SDS011;11991;57.150;-2.134;2022-07-11T10:21:14;1.02;;;0.60;;
23628;SDS011;11991;57.150;-2.134;2022-07-11T10:26:45;0.85;;;0.70;;
23628;SDS011;11991;57.150;-2.134;2022-07-11T10:29:37;1.90;;;0.80;;
23628;SDS011;11991;57.150;-2.134;2022-07-11T10:32:10;3.05;;;0.75;;
23628;SDS011;11991;57.150;-2.134;2022-07-11T10:34:42;0.85;;;0.82;;
23628;SDS011;11991;57.150;-2.134;2022-07-11T10:37:10;1.00;;;0.70;;
23628;SDS011;11991;57.150;-2.134;2022-07-11T10:39:39;0.60;;;0.60;;
23628;SDS011;11991;57.150;-2.134;2022-07-11T10:42:23;1.17;;;0.60;;
23628;SDS011;11991;57.150;-2.134;2022-07-11T10:45:08;0.50;;;0.50;;
23628;SDS011;11991;57.150;-2.134;2022-07-11T10:47:41;1.40;;;0.90;;
23628;SDS011;11991;57.150;-2.134;2022-07-11T10:50:34;0.82;;;0.60;;
23628;SDS011;11991;57.150;-2.134;2022-07-11T10:53:09;1.20;;;0.70;;
23628;SDS011;11991;57.150;-2.134;2022-07-11T10:59:14;0.50;;;0.50;;
23628;SDS011;11991;57.150;-2.134;2022-07-11T11:02:02;0.82;;;0.57;;
23628;SDS011;11991;57.150;-2.134;2022-07-11T11:09:58;0.50;;;0.50;;
23628;SDS011;11991;57.150;-2.134;2022-07-11T11:15:51;0.68;;;0.68;;
23628;SDS011;11991;57.150;-2.134;2022-07-11T11:26:09;0.50;;;0.50;;
23628;SDS011;11991;57.150;-2.134;2022-07-11T11:28:59;0.98;;;0.60;;
23628;SDS011;11991;57.150;-2.134;2022-07-11T11:31:30;0.50;;;0.50;;
23628;SDS011;11991;57.150;-2.134;2022-07-11T11:33:58;0.82;;;0.70;;
23628;SDS011;11991;57.150;-2.134;2022-07-11T11:36:27;0.40;;;0.40;;
23628;SDS011;11991;57.150;-2.134;2022-07-11T11:38:55;0.40;;;0.40;;
23628;SDS011;11991;57.150;-2.134;2022-07-11T11:43:52;0.98;;;0.60;;
23628;SDS011;11991;57.150;-2.134;2022-07-11T11:46:24;0.60;;;0.60;;
23628;SDS011;11991;57.150;-2.134;2022-07-11T11:49:00;1.25;;;0.60;;
23628;SDS011;11991;57.150;-2.134;2022-07-11T11:51:32;0.70;;;0.70;;
23628;SDS011;11991;57.150;-2.134;2022-07-11T11:54:00;0.45;;;0.45;;
23628;SDS011;11991;57.150;-2.134;2022-07-11T11:56:30;0.77;;;0.77;;
23628;SDS011;11991;57.150;-2.134;2022-07-11T11:59:05;0.68;;;0.60;;
23628;SDS011;11991;57.150;-2.134;2022-07-11T12:01:43;0.63;;;0.63;;
23628;SDS011;11991;57.150;-2.134;2022-07-11T12:04:15;0.70;;;0.60;;
23628;SDS011;11991;57.150;-2.134;2022-07-11T12:06:47;0.65;;;0.65;;
23628;SDS011;11991;57.150;-2.134;2022-07-11T12:09:17;0.88;;;0.60;;
23628;SDS011;11991;57.150;-2.134;2022-07-11T12:11:46;0.60;;;0.60;;
23628;SDS011;11991;57.150;-2.134;2022-07-11T12:14:35;1.05;;;0.60;;
23628;SDS011;11991;57.150;-2.134;2022-07-11T12:17:02;0.60;;;0.60;;
23628;SDS011;11991;57.150;-2.134;2022-07-11T12:19:33;0.63;;;0.60;;
23628;SDS011;11991;57.150;-2.134;2022-07-11T12:22:03;1.20;;;0.70;;
23628;SDS011;11991;57.150;-2.134;2022-07-11T12:24:31;0.80;;;0.80;;
23628;SDS011;11991;57.150;-2.134;2022-07-11T12:26:59;1.05;;;0.65;;
23628;SDS011;11991;57.150;-2.134;2022-07-11T12:29:27;0.70;;;0.70;;
23628;SDS011;11991;57.150;-2.134;2022-07-11T12:31:55;0.60;;;0.60;;
23628;SDS011;11991;57.150;-2.134;2022-07-11T12:37:10;0.65;;;0.65;;
23628;SDS011;11991;57.150;-2.134;2022-07-11T12:39:46;0.60;;;0.60;;
23628;SDS011;11991;57.150;-2.134;2022-07-11T12:42:22;2.35;;;1.00;;
23628;SDS011;11991;57.150;-2.134;2022-07-11T12:45:06;2.42;;;1.13;;
23628;SDS011;11991;57.150;-2.134;2022-07-11T12:47:40;2.60;;;0.95;;
23628;SDS011;11991;57.150;-2.134;2022-07-11T12:52:41;0.73;;;0.70;;
23628;SDS011;11991;57.150;-2.134;2022-07-11T12:55:22;0.95;;;0.70;;
23628;SDS011;11991;57.150;-2.134;2022-07-11T12:58:13;2.22;;;1.00;;
23628;SDS011;11991;57.150;-2.134;2022-07-11T13:00:56;1.10;;;0.82;;
23628;SDS011;11991;57.150;-2.134;2022-07-11T13:03:31;2.35;;;1.05;;
23628;SDS011;11991;57.150;-2.134;2022-07-11T13:06:00;0.70;;;0.70;;
23628;SDS011;11991;57.150;-2.134;2022-07-11T13:08:30;1.10;;;0.90;;
23628;SDS011;11991;57.150;-2.134;2022-07-11T13:11:16;0.70;;;0.70;;
23628;SDS011;11991;57.150;-2.134;2022-07-11T13:13:48;0.82;;;0.70;;
23628;SDS011;11991;57.150;-2.134;2022-07-11T13:16:16;1.05;;;0.60;;
23628;SDS011;11991;57.150;-2.134;2022-07-11T13:18:45;0.98;;;0.88;;
23628;SDS011;11991;57.150;-2.134;2022-07-11T13:21:13;0.85;;;0.75;;
23628;SDS011;11991;57.150;-2.134;2022-07-11T13:23:42;1.67;;;0.93;;
23628;SDS011;11991;57.150;-2.134;2022-07-11T13:26:09;1.50;;;0.80;;
23628;SDS011;11991;57.150;-2.134;2022-07-11T13:28:37;3.13;;;1.00;;
23628;SDS011;11991;57.150;-2.134;2022-07-11T13:31:05;0.80;;;0.70;;
23628;SDS011;11991;57.150;-2.134;2022-07-11T13:33:40;1.05;;;0.90;;
23628;SDS011;11991;57.150;-2.134;2022-07-11T13:36:08;0.77;;;0.77;;
23628;SDS011;11991;57.150;-2.134;2022-07-11T13:38:36;1.05;;;1.00;;
23628;SDS011;11991;57.150;-2.134;2022-07-11T13:41:03;1.00;;;0.73;;
23628;SDS011;11991;57.150;-2.134;2022-07-11T13:43:34;1.30;;;0.77;;
23628;SDS011;11991;57.150;-2.134;2022-07-11T13:46:01;1.15;;;0.70;;
23628;SDS011;11991;57.150;-2.134;2022-07-11T13:48:29;0.93;;;0.80;;
23628;SDS011;11991;57.150;-2.134;2022-07-11T13:50:56;1.73;;;1.00;;
23628;SDS011;11991;57.150;-2.134;2022-07-11T13:53:23;0.73;;;0.73;;
23628;SDS011;11991;57.150;-2.134;2022-07-11T13:55:51;0.85;;;0.85;;
23628;SDS011;11991;57.150;-2.134;2022-07-11T13:58:20;0.88;;;0.80;;
23628;SDS011;11991;57.150;-2.134;2022-07-11T14:00:57;0.80;;;0.80;;
23628;SDS011;11991;57.150;-2.134;2022-07-11T14:03:26;1.75;;;1.20;;
23628;SDS011;11991;57.150;-2.134;2022-07-11T14:05:54;1.20;;;1.00;;
23628;SDS011;11991;57.150;-2.134;2022-07-11T14:08:21;0.80;;;0.80;;
23628;SDS011;11991;57.150;-2.134;2022-07-11T14:10:49;1.00;;;0.90;;
23628;SDS011;11991;57.150;-2.134;2022-07-11T14:13:16;1.17;;;1.08;;
23628;SDS011;11991;57.150;-2.134;2022-07-11T14:15:45;1.10;;;1.00;;
23628;SDS011;11991;57.150;-2.134;2022-07-11T14:18:13;1.00;;;0.90;;
23628;SDS011;11991;57.150;-2.134;2022-07-11T14:20:40;2.47;;;0.88;;
23628;SDS011;11991;57.150;-2.134;2022-07-11T14:23:08;0.70;;;0.70;;
23628;SDS011;11991;57.150;-2.134;2022-07-11T14:25:35;0.80;;;0.80;;
23628;SDS011;11991;57.150;-2.134;2022-07-11T14:28:02;0.75;;;0.70;;
23628;SDS011;11991;57.150;-2.134;2022-07-11T14:30:32;1.17;;;1.02;;
23628;SDS011;11991;57.150;-2.134;2022-07-11T14:33:00;0.70;;;0.70;;
23628;SDS011;11991;57.150;-2.134;2022-07-11T14:35:27;1.65;;;1.10;;
23628;SDS011;11991;57.150;-2.134;2022-07-11T14:37:54;0.95;;;0.68;;
23628;SDS011;11991;57.150;-2.134;2022-07-11T14:40:22;0.75;;;0.73;;
23628;SDS011;11991;57.150;-2.134;2022-07-11T14:42:54;0.70;;;0.70;;
23628;SDS011;11991;57.150;-2.134;2022-07-11T14:45:22;0.98;;;0.60;;
23628;SDS011;11991;57.150;-2.134;2022-07-11T14:47:49;1.95;;;0.70;;
23628;SDS011;11991;57.150;-2.134;2022-07-11T14:50:18;0.93;;;0.90;;
23628;SDS011;11991;57.150;-2.134;2022-07-11T14:52:46;0.70;;;0.70;;
23628;SDS011;11991;57.150;-2.134;2022-07-11T14:55:13;0.77;;;0.77;;
23628;SDS011;11991;57.150;-2.134;2022-07-11T14:57:40;1.17;;;0.77;;
23628;SDS011;11991;57.150;-2.134;2022-07-11T15:00:14;1.55;;;0.77;;
23628;SDS011;11991;57.150;-2.134;2022-07-11T15:02:41;0.52;;;0.50;;
23628;SDS011;11991;57.150;-2.134;2022-07-11T15:05:27;1.15;;;0.60;;
23628;SDS011;11991;57.150;-2.134;2022-07-11T15:07:55;1.05;;;0.75;;
23628;SDS011;11991;57.150;-2.134;2022-07-11T15:10:40;1.10;;;0.70;;
23628;SDS011;11991;57.150;-2.134;2022-07-11T15:13:26;0.70;;;0.60;;
23628;SDS011;11991;57.150;-2.134;2022-07-11T15:15:54;0.63;;;0.63;;
23628;SDS011;11991;57.150;-2.134;2022-07-11T15:18:21;0.93;;;0.70;;
23628;SDS011;11991;57.150;-2.134;2022-07-11T15:20:49;0.63;;;0.63;;
23628;SDS011;11991;57.150;-2.134;2022-07-11T15:23:16;1.15;;;0.73;;